createdAt,value
2022-11-13T00:02:09.575Z,58.07
2022-11-13T00:04:56.095Z,54.33
2022-11-13T00:07:42.604Z,55.60
2022-11-13T00:10:29.166Z,64.80
2022-11-13T00:13:15.772Z,53.93
2022-11-13T00:16:08.023Z,55.53
2022-11-13T00:18:54.215Z,59.53
2022-11-13T00:21:40.785Z,50.53
2022-11-13T00:24:27.359Z,49.47
2022-11-13T00:27:14.255Z,65.80
2022-11-13T00:30:00.516Z,69.37
2022-11-13T00:32:47.153Z,67.53
2022-11-13T00:35:33.848Z,69.20
2022-11-13T00:38:20.694Z,56.57
2022-11-13T00:41:07.150Z,55.53
2022-11-13T00:43:54.347Z,54.07
2022-11-13T00:46:40.863Z,54.27
2022-11-13T00:49:27.464Z,52.13
2022-11-13T00:52:13.787Z,48.03
2022-11-13T00:55:00.286Z,59.87
2022-11-13T00:57:46.278Z,57.20
2022-11-13T01:00:33.515Z,54.90
2022-11-13T01:03:19.950Z,57.90
2022-11-13T01:06:15.253Z,60.53
2022-11-13T01:09:01.626Z,55.90
2022-11-13T01:11:48.048Z,58.63
2022-11-13T01:14:34.139Z,53.33
2022-11-13T01:17:21.448Z,57.60
2022-11-13T01:20:07.893Z,50.57
2022-11-13T01:22:54.414Z,57.00
2022-11-13T01:25:41.026Z,60.30
2022-11-13T01:28:27.995Z,51.10
2022-11-13T01:31:16.981Z,53.03
2022-11-13T01:34:03.419Z,55.63
2022-11-13T01:36:49.860Z,57.10
2022-11-13T01:39:36.179Z,61.47
2022-11-13T01:42:22.717Z,58.23
2022-11-13T01:45:47.499Z,59.37
2022-11-13T01:48:40.197Z,60.03
2022-11-13T01:51:36.536Z,48.80
2022-11-13T01:54:53.120Z,57.63
2022-11-13T01:57:39.752Z,57.90
2022-11-13T02:00:26.154Z,66.17
2022-11-13T02:03:12.814Z,59.57
2022-11-13T02:05:59.158Z,57.07
2022-11-13T02:08:45.696Z,59.53
2022-11-13T02:11:32.150Z,58.37
2022-11-13T02:14:18.532Z,63.40
2022-11-13T02:17:06.551Z,51.70
2022-11-13T02:19:58.797Z,59.07
2022-11-13T02:23:02.511Z,67.60
2022-11-13T02:25:52.276Z,53.83
2022-11-13T02:28:38.608Z,55.17
2022-11-13T02:31:25.090Z,56.50
2022-11-13T02:34:11.340Z,60.63
2022-11-13T02:36:58.224Z,64.03
2022-11-13T02:39:44.407Z,51.80
2022-11-13T02:42:30.682Z,57.00
2022-11-13T02:45:17.025Z,54.20
2022-11-13T02:48:03.205Z,65.00
2022-11-13T02:50:49.651Z,63.27
2022-11-13T02:53:36.176Z,53.97
2022-11-13T02:56:22.457Z,54.47
2022-11-13T02:59:09.183Z,56.83
2022-11-13T03:01:55.590Z,58.07
2022-11-13T03:05:10.327Z,61.37
2022-11-13T03:07:47.749Z,66.73
2022-11-13T03:10:34.290Z,66.30
2022-11-13T03:13:20.905Z,59.90
2022-11-13T03:16:12.735Z,60.83
2022-11-13T03:18:58.871Z,71.40
2022-11-13T03:21:45.329Z,69.30
2022-11-13T03:24:31.515Z,66.37
2022-11-13T03:27:17.872Z,66.50
2022-11-13T03:30:04.244Z,56.77
2022-11-13T03:32:56.946Z,57.30
2022-11-13T03:35:46.931Z,63.40
2022-11-13T03:38:34.292Z,63.17
2022-11-13T03:41:20.963Z,58.67
2022-11-13T03:44:07.718Z,59.27
2022-11-13T03:46:54.145Z,58.53
2022-11-13T03:49:40.902Z,62.03
2022-11-13T03:52:27.352Z,65.53
2022-11-13T03:55:13.819Z,63.73
2022-11-13T03:58:00.222Z,60.67
2022-11-13T04:00:46.827Z,65.53
2022-11-13T04:03:33.461Z,69.67
2022-11-13T04:06:24.603Z,61.83
2022-11-13T04:09:11.324Z,56.80
2022-11-13T04:11:57.768Z,69.27
2022-11-13T04:14:44.432Z,62.47
2022-11-13T04:17:30.941Z,75.80
2022-11-13T04:20:17.474Z,61.03
2022-11-13T04:23:08.026Z,66.60
2022-11-13T04:25:54.209Z,67.57
2022-11-13T04:28:40.883Z,71.80
2022-11-13T04:31:27.256Z,62.60
2022-11-13T04:34:13.700Z,70.37
2022-11-13T04:36:59.843Z,64.70
2022-11-13T04:39:46.675Z,63.33
2022-11-13T04:42:51.305Z,67.67
2022-11-13T04:45:38.137Z,66.30
2022-11-13T04:48:24.458Z,76.07
2022-11-13T04:51:13.680Z,75.13
2022-11-13T04:54:00.387Z,73.17
2022-11-13T04:56:46.887Z,69.50
2022-11-13T04:59:33.109Z,71.83
2022-11-13T05:02:20.333Z,64.93
2022-11-13T05:05:06.994Z,80.97
2022-11-13T05:07:53.724Z,69.70
2022-11-13T05:10:40.300Z,67.57
2022-11-13T05:13:26.627Z,76.03
2022-11-13T05:16:15.121Z,79.33
2022-11-13T05:19:02.125Z,84.67
2022-11-13T05:21:48.496Z,86.53
2022-11-13T05:24:34.861Z,75.67
2022-11-13T05:27:20.906Z,82.07
2022-11-13T05:30:07.609Z,76.67
2022-11-13T05:32:53.968Z,79.43
2022-11-13T05:35:41.082Z,78.73
2022-11-13T05:38:28.949Z,77.57
2022-11-13T05:41:18.767Z,81.77
2022-11-13T05:44:04.800Z,86.90
2022-11-13T05:46:51.541Z,75.87
2022-11-13T05:49:37.794Z,86.30
2022-11-13T05:52:24.600Z,86.07
2022-11-13T05:55:10.844Z,79.33
2022-11-13T05:57:59.375Z,75.47
2022-11-13T06:00:46.257Z,82.17
2022-11-13T06:03:33.335Z,82.47
2022-11-13T06:06:21.059Z,85.63
2022-11-13T06:09:08.079Z,82.30
2022-11-13T06:11:54.620Z,76.43
2022-11-13T06:14:41.617Z,71.33
2022-11-13T06:17:27.992Z,76.63
2022-11-13T06:20:15.351Z,62.30
2022-11-13T06:23:01.414Z,64.63
2022-11-13T06:25:47.673Z,75.93
2022-11-13T06:28:34.757Z,77.93
2022-11-13T06:31:23.916Z,65.87
2022-11-13T06:34:10.338Z,79.43
2022-11-13T06:36:57.012Z,68.10
2022-11-13T06:39:43.386Z,65.83
2022-11-13T06:42:30.059Z,87.77
2022-11-13T06:45:16.242Z,84.93
2022-11-13T06:48:03.349Z,77.50
2022-11-13T06:50:49.419Z,80.73
2022-11-13T06:53:36.348Z,82.23
2022-11-13T06:56:23.254Z,71.43
2022-11-13T06:59:09.828Z,80.50
2022-11-13T07:01:56.417Z,86.57
2022-11-13T07:04:43.031Z,79.27
2022-11-13T07:07:29.515Z,69.73
2022-11-13T07:10:16.087Z,70.50
2022-11-13T07:13:02.607Z,70.27
2022-11-13T07:15:49.410Z,58.17
2022-11-13T07:18:36.087Z,52.77
2022-11-13T07:21:23.402Z,52.27
2022-11-13T07:24:15.519Z,50.07
2022-11-13T07:27:03.786Z,46.40
2022-11-13T07:29:50.256Z,42.07
2022-11-13T07:32:37.471Z,46.80
2022-11-13T07:35:23.909Z,41.83
2022-11-13T07:38:10.606Z,61.13
2022-11-13T07:40:59.275Z,50.77
2022-11-13T07:43:45.885Z,49.87
2022-11-13T07:46:32.421Z,50.97
2022-11-13T07:49:19.303Z,52.20
2022-11-13T07:52:05.857Z,49.23
2022-11-13T07:54:52.734Z,45.33
2022-11-13T07:57:39.398Z,44.97
2022-11-13T08:00:26.800Z,41.07
2022-11-13T08:03:16.171Z,41.57
2022-11-13T08:06:05.474Z,45.70
2022-11-13T08:08:51.937Z,47.70
2022-11-13T08:11:38.957Z,47.47
2022-11-13T08:14:25.473Z,49.93
2022-11-13T08:17:12.538Z,45.50
2022-11-13T08:19:58.953Z,53.10
2022-11-13T08:22:45.560Z,57.17
2022-11-13T08:25:32.274Z,63.17
2022-11-13T08:28:19.326Z,59.33
2022-11-13T08:31:06.069Z,57.97
2022-11-13T08:33:52.950Z,57.33
2022-11-13T08:36:39.761Z,46.57
2022-11-13T08:39:26.241Z,45.77
2022-11-13T08:42:12.709Z,42.13
2022-11-13T08:44:59.740Z,40.77
2022-11-13T08:47:45.988Z,43.47
2022-11-13T08:50:33.917Z,41.47
2022-11-13T08:53:20.708Z,42.13
2022-11-13T08:56:08.413Z,43.27
2022-11-13T08:58:55.116Z,45.93
2022-11-13T09:01:42.025Z,39.67
2022-11-13T09:04:29.388Z,37.50
2022-11-13T09:07:16.416Z,37.43
2022-11-13T09:10:02.831Z,41.43
2022-11-13T09:12:49.827Z,37.63
2022-11-13T09:15:38.426Z,41.87
2022-11-13T09:18:25.981Z,39.80
2022-11-13T09:21:12.205Z,36.50
2022-11-13T09:23:59.568Z,37.43
2022-11-13T09:26:45.753Z,39.77
2022-11-13T09:29:32.201Z,34.07
2022-11-13T09:32:19.627Z,38.83
2022-11-13T09:35:09.435Z,37.20
2022-11-13T09:37:56.022Z,37.93
2022-11-13T09:40:54.209Z,43.97
2022-11-13T09:43:48.958Z,42.80
2022-11-13T09:46:48.086Z,46.37
2022-11-13T09:49:38.094Z,55.87
2022-11-13T09:52:33.111Z,76.77
2022-11-13T09:55:23.470Z,66.30
2022-11-13T09:58:41.060Z,63.20
2022-11-13T10:01:37.113Z,73.40
2022-11-13T10:04:53.458Z,70.15
2022-11-13T10:07:48.059Z,64.77
2022-11-13T10:10:50.692Z,69.33
2022-11-13T10:13:54.639Z,68.30
2022-11-13T10:16:59.311Z,68.07
2022-11-13T10:19:58.926Z,64.40
2022-11-13T10:22:56.284Z,73.77
2022-11-13T10:25:44.479Z,64.40
2022-11-13T10:32:32.939Z,47.20
2022-11-13T10:35:23.406Z,49.67
2022-11-13T10:38:37.348Z,45.67
2022-11-13T10:41:23.872Z,51.50
2022-11-13T10:44:22.576Z,48.43
2022-11-13T10:47:26.399Z,50.60
2022-11-13T10:50:30.782Z,44.77
2022-11-13T10:53:20.930Z,47.67
2022-11-13T10:56:32.002Z,49.23
2022-11-13T10:59:19.999Z,41.57
2022-11-13T11:02:26.993Z,40.60
2022-11-13T11:05:24.990Z,45.13
2022-11-13T11:08:11.433Z,43.60
2022-11-13T11:11:20.146Z,32.47
2022-11-13T11:14:20.709Z,37.63
2022-11-13T11:17:09.290Z,41.30
2022-11-13T11:20:08.260Z,38.53
2022-11-13T11:23:06.618Z,37.73
2022-11-13T11:26:01.088Z,47.20
2022-11-13T11:29:10.267Z,43.60
2022-11-13T11:32:50.422Z,42.27
2022-11-13T11:35:39.623Z,45.00
2022-11-13T11:38:51.014Z,41.50
2022-11-13T11:41:44.634Z,42.37
2022-11-13T11:44:38.443Z,43.07
2022-11-13T11:47:25.076Z,43.67
2022-11-13T11:50:15.389Z,40.30
2022-11-13T11:53:14.118Z,39.07
2022-11-13T11:56:32.785Z,40.90
2022-11-13T11:59:31.513Z,41.90
2022-11-13T12:02:37.111Z,37.73
2022-11-13T12:05:49.069Z,38.63
2022-11-13T12:08:47.569Z,38.37
2022-11-13T12:11:35.512Z,34.50
2022-11-13T12:14:53.912Z,39.07
2022-11-13T12:17:53.981Z,30.50
2022-11-13T12:21:11.443Z,33.03
2022-11-13T12:24:01.905Z,35.07
2022-11-13T12:27:09.865Z,38.90
2022-11-13T12:30:17.392Z,34.93
2022-11-13T12:33:24.747Z,33.60
2022-11-13T12:36:14.840Z,41.47
2022-11-13T12:39:33.988Z,171.83
2022-11-13T12:42:40.742Z,85.20
2022-11-13T12:45:52.401Z,102.43
2022-11-13T12:48:41.016Z,42.00
2022-11-13T12:51:41.503Z,33.40
2022-11-13T12:54:31.506Z,40.27
2022-11-13T12:57:28.655Z,36.73
2022-11-13T13:00:27.684Z,25.93
2022-11-13T13:03:20.059Z,33.93
2022-11-13T13:06:07.040Z,29.63
2022-11-13T13:09:04.455Z,27.13
2022-11-13T13:12:09.274Z,20.63
2022-11-13T13:15:16.814Z,19.23
2022-11-13T13:18:12.693Z,18.93
2022-11-13T13:21:07.378Z,18.87
2022-11-13T13:23:54.923Z,17.20
2022-11-13T13:26:47.905Z,21.63
2022-11-13T13:29:36.856Z,19.47
2022-11-13T13:32:31.612Z,17.20
2022-11-13T13:35:27.536Z,19.23
2022-11-13T13:39:04.325Z,17.07
2022-11-13T13:42:12.269Z,17.27
2022-11-13T13:45:20.765Z,20.37
2022-11-13T13:48:16.696Z,16.20
2022-11-13T13:51:03.304Z,16.37
2022-11-13T13:53:50.608Z,19.30
2022-11-13T13:56:43.140Z,20.33
2022-11-13T13:59:37.187Z,25.50
2022-11-13T14:02:24.715Z,20.80
2022-11-13T14:05:33.595Z,19.90
2022-11-13T14:08:26.041Z,21.50
2022-11-13T14:11:30.312Z,22.53
2022-11-13T14:14:23.262Z,22.00
2022-11-13T14:17:12.216Z,26.27
2022-11-13T14:20:01.446Z,27.17
2022-11-13T14:22:56.366Z,25.30
2022-11-13T14:25:44.790Z,27.33
2022-11-13T14:28:43.448Z,25.43
2022-11-13T14:31:35.302Z,24.73
2022-11-13T14:34:24.108Z,27.70
2022-11-13T14:37:36.105Z,27.17
2022-11-13T14:40:31.827Z,23.00
2022-11-13T14:43:28.169Z,23.27
2022-11-13T14:46:44.628Z,19.93
2022-11-13T14:49:36.784Z,17.60
2022-11-13T14:52:29.310Z,22.57
2022-11-13T14:55:25.033Z,19.93
2022-11-13T14:58:14.316Z,21.80
2022-11-13T15:01:32.624Z,21.67
2022-11-13T15:04:19.494Z,21.90
2022-11-13T15:07:30.168Z,19.97
2022-11-13T15:10:20.191Z,19.10
2022-11-13T15:13:17.153Z,17.67
2022-11-13T15:16:03.521Z,19.43
2022-11-13T15:18:53.305Z,17.87
2022-11-13T15:21:44.894Z,21.13
2022-11-13T15:24:34.015Z,18.90
2022-11-13T15:27:20.880Z,17.27
2022-11-13T15:30:07.428Z,17.47
2022-11-13T15:32:54.863Z,19.70
2022-11-13T15:35:44.451Z,17.57
2022-11-13T15:38:31.396Z,16.80
2022-11-13T15:41:22.988Z,21.10
2022-11-13T15:44:14.994Z,16.80
2022-11-13T15:47:01.477Z,15.60
2022-11-13T15:50:09.861Z,18.07
2022-11-13T15:52:54.625Z,17.60
2022-11-13T15:55:42.128Z,18.43
2022-11-13T15:58:33.483Z,15.23
2022-11-13T16:01:21.567Z,19.47
2022-11-13T16:04:08.474Z,19.63
2022-11-13T16:06:55.448Z,18.30
2022-11-13T16:09:41.973Z,19.77
2022-11-13T16:12:28.646Z,22.03
2022-11-13T16:15:16.994Z,23.57
2022-11-13T16:18:03.495Z,18.93
2022-11-13T16:20:49.833Z,17.20
2022-11-13T16:23:36.967Z,19.53
2022-11-13T16:26:25.854Z,23.37
2022-11-13T16:29:20.937Z,25.17
2022-11-13T16:32:13.739Z,22.30
2022-11-13T16:35:00.922Z,37.27
2022-11-13T16:37:47.356Z,27.07
2022-11-13T16:40:34.203Z,21.97
2022-11-13T16:43:20.903Z,17.27
2022-11-13T16:46:31.606Z,17.13
2022-11-13T16:49:21.222Z,19.50
2022-11-13T16:52:08.344Z,21.10
2022-11-13T16:54:54.478Z,24.17
2022-11-13T16:57:41.746Z,17.77
2022-11-13T17:00:28.024Z,17.37
2022-11-13T17:03:14.641Z,22.77
2022-11-13T17:06:01.064Z,19.17
2022-11-13T17:08:50.287Z,18.87
2022-11-13T17:11:36.543Z,19.17
2022-11-13T17:14:23.216Z,19.07
2022-11-13T17:17:13.730Z,19.97
2022-11-13T17:20:00.332Z,28.87
2022-11-13T17:22:48.641Z,20.67
2022-11-13T17:25:35.191Z,21.57
2022-11-13T17:28:21.689Z,21.60
2022-11-13T17:31:12.873Z,19.53
2022-11-13T17:33:59.031Z,21.90
2022-11-13T17:36:46.105Z,19.60
2022-11-13T17:39:32.863Z,22.43
2022-11-13T17:42:19.813Z,25.97
2022-11-13T17:45:06.444Z,29.33
2022-11-13T17:47:53.369Z,26.63
2022-11-13T17:50:40.403Z,26.73
2022-11-13T17:53:27.798Z,26.57
2022-11-13T17:56:14.850Z,28.70
2022-11-13T17:59:02.581Z,25.30
2022-11-13T18:01:49.116Z,27.87
2022-11-13T18:04:36.383Z,28.03
2022-11-13T18:07:22.693Z,28.07
2022-11-13T18:10:11.112Z,28.03
2022-11-13T18:12:57.518Z,27.67
2022-11-13T18:15:44.906Z,28.07
2022-11-13T18:18:30.980Z,29.67
2022-11-13T18:21:23.741Z,29.57
2022-11-13T18:24:16.951Z,26.00
2022-11-13T18:27:06.641Z,28.90
2022-11-13T18:29:53.217Z,30.90
2022-11-13T18:32:40.436Z,24.87
2022-11-13T18:35:27.275Z,30.80
2022-11-13T18:38:13.863Z,27.73
2022-11-13T18:51:38.530Z,42.77
2022-11-13T18:54:27.620Z,34.27
2022-11-13T18:57:16.016Z,39.00
2022-11-13T19:00:04.388Z,38.03
2022-11-13T19:02:53.662Z,42.90
2022-11-13T19:05:48.988Z,32.43
2022-11-13T19:08:40.747Z,32.17
2022-11-13T19:11:33.165Z,32.20
2022-11-13T19:14:21.247Z,33.17
2022-11-13T19:17:13.096Z,35.93
2022-11-13T19:20:00.359Z,39.80
2022-11-13T19:22:49.230Z,30.53
2022-11-13T19:25:37.388Z,42.10
2022-11-13T19:28:26.199Z,33.03
2022-11-13T19:31:17.631Z,32.87
2022-11-13T19:34:08.813Z,30.07
2022-11-13T19:36:55.397Z,32.40
2022-11-13T19:39:42.251Z,30.43
2022-11-13T19:42:28.266Z,30.73
2022-11-13T19:45:14.927Z,32.97
2022-11-13T19:48:01.382Z,34.73
2022-11-13T19:50:48.528Z,28.03
2022-11-13T19:53:34.709Z,24.37
2022-11-13T19:56:22.939Z,29.00
2022-11-13T19:59:11.953Z,20.93
2022-11-13T20:01:58.710Z,20.33
2022-11-13T20:04:45.453Z,24.37
2022-11-13T20:07:31.931Z,21.47
2022-11-13T20:10:18.527Z,19.73
2022-11-13T20:13:05.788Z,19.70
2022-11-13T20:15:55.112Z,17.53
2022-11-13T20:18:42.542Z,15.37
2022-11-13T20:21:31.640Z,15.00
2022-11-13T20:24:18.727Z,11.83
2022-11-13T20:27:04.766Z,14.67
2022-11-13T20:29:51.116Z,13.73
2022-11-13T20:32:41.451Z,12.40
2022-11-13T20:35:29.131Z,16.57
2022-11-13T20:38:16.512Z,21.30
2022-11-13T20:41:07.399Z,20.70
2022-11-13T20:43:55.949Z,18.47
2022-11-13T20:46:43.705Z,18.20
2022-11-13T20:49:31.479Z,19.00
2022-11-13T20:52:18.369Z,20.57
2022-11-13T20:55:05.962Z,21.23
2022-11-13T20:57:53.316Z,32.17
2022-11-13T21:00:39.577Z,156.10
2022-11-13T21:03:26.670Z,50.33
2022-11-13T21:06:19.247Z,21.13
2022-11-13T21:09:05.978Z,27.23
2022-11-13T21:11:52.513Z,17.50
2022-11-13T21:14:39.228Z,19.93
2022-11-13T21:17:25.435Z,18.47
2022-11-13T21:20:13.051Z,15.23
2022-11-13T21:22:59.673Z,16.53
2022-11-13T21:25:46.601Z,20.63
2022-11-13T21:28:34.233Z,25.40
2022-11-13T21:31:23.083Z,22.23
2022-11-13T21:34:10.402Z,20.43
2022-11-13T21:36:57.165Z,14.47
2022-11-13T21:39:43.408Z,25.40
2022-11-13T21:42:30.038Z,19.13
2022-11-13T21:45:16.630Z,17.93
2022-11-13T21:48:03.351Z,14.40
2022-11-13T21:50:49.642Z,20.60
2022-11-13T21:53:37.402Z,21.63
2022-11-13T21:56:24.602Z,18.27
2022-11-13T21:59:10.999Z,16.83
2022-11-13T22:01:58.140Z,23.23
2022-11-13T22:04:44.722Z,20.57
2022-11-13T22:07:30.610Z,17.17
2022-11-13T22:10:17.745Z,17.37
2022-11-13T22:13:03.902Z,18.43
2022-11-13T22:15:51.312Z,19.60
2022-11-13T22:18:37.448Z,19.10
2022-11-13T22:21:25.666Z,19.63
2022-11-13T22:24:13.084Z,22.27
2022-11-13T22:27:00.759Z,18.67
2022-11-13T22:29:47.985Z,17.23
2022-11-13T22:32:34.950Z,17.63
2022-11-13T22:35:21.796Z,16.47
2022-11-13T22:38:09.403Z,21.70
2022-11-13T22:41:01.742Z,17.93
2022-11-13T22:43:54.138Z,18.87
2022-11-13T22:46:40.688Z,18.73
2022-11-13T22:49:26.985Z,16.23
2022-11-13T22:52:13.138Z,19.57
2022-11-13T22:54:59.349Z,17.63
2022-11-13T22:57:45.300Z,20.03
2022-11-13T23:00:32.167Z,21.07
2022-11-13T23:03:17.860Z,21.20
2022-11-13T23:06:04.907Z,22.23
2022-11-13T23:08:51.860Z,25.70
2022-11-13T23:11:39.687Z,20.80
2022-11-13T23:14:25.932Z,19.23
2022-11-13T23:17:12.093Z,21.73
2022-11-13T23:19:57.953Z,23.77
2022-11-13T23:22:44.565Z,20.93
2022-11-13T23:25:33.299Z,22.73
2022-11-13T23:28:19.252Z,24.77
2022-11-13T23:31:05.674Z,24.20
2022-11-13T23:33:52.098Z,22.53
2022-11-13T23:36:38.147Z,18.97
2022-11-13T23:39:24.614Z,23.50
2022-11-13T23:42:10.868Z,29.97
2022-11-13T23:44:56.992Z,22.50
2022-11-13T23:47:44.016Z,20.93
2022-11-13T23:50:30.786Z,20.23
2022-11-13T23:53:17.629Z,22.53
2022-11-13T23:56:04.024Z,23.73
2022-11-13T23:58:52.731Z,23.07
